createdAt,value
2022-12-16T00:01:19.224Z,-2.30
2022-12-16T00:03:51.997Z,-2.30
2022-12-16T00:06:19.503Z,-2.30
2022-12-16T00:08:46.393Z,-2.30
2022-12-16T00:11:13.677Z,-2.30
2022-12-16T00:13:41.457Z,-2.30
2022-12-16T00:16:13.835Z,-2.30
2022-12-16T00:18:41.475Z,-2.40
2022-12-16T00:21:08.968Z,-2.30
2022-12-16T00:23:36.635Z,-2.30
2022-12-16T00:26:04.517Z,-2.30
2022-12-16T00:28:31.924Z,-2.30
2022-12-16T00:30:58.944Z,-2.30
2022-12-16T00:33:27.059Z,-2.20
2022-12-16T00:35:55.315Z,-2.30
2022-12-16T00:38:23.840Z,-2.30
2022-12-16T00:40:50.742Z,-2.30
2022-12-16T00:43:20.314Z,-2.30
2022-12-16T00:45:48.234Z,-2.40
2022-12-16T00:48:15.844Z,-2.40
2022-12-16T00:50:48.908Z,-2.30
2022-12-16T00:53:15.908Z,-2.40
2022-12-16T00:55:43.295Z,-2.40
2022-12-16T00:58:10.668Z,-2.40
2022-12-16T01:00:38.590Z,-2.30
2022-12-16T01:03:06.419Z,-2.30
2022-12-16T01:05:33.659Z,-2.30
2022-12-16T01:08:00.856Z,-2.20
2022-12-16T01:10:27.834Z,-2.30
2022-12-16T01:12:54.719Z,-2.30
2022-12-16T01:15:22.227Z,-2.30
2022-12-16T01:17:49.672Z,-2.40
2022-12-16T01:20:16.626Z,-2.40
2022-12-16T01:22:43.592Z,-2.40
2022-12-16T01:25:13.036Z,-2.40
2022-12-16T01:27:40.264Z,-2.40
2022-12-16T01:30:09.758Z,-2.30
2022-12-16T01:32:36.969Z,-2.30
2022-12-16T01:35:10.710Z,-2.30
2022-12-16T01:37:45.282Z,-2.30
2022-12-16T01:40:19.861Z,-2.30
2022-12-16T01:42:46.929Z,-2.20
2022-12-16T01:45:42.965Z,-2.20
2022-12-16T01:48:41.540Z,-2.30
2022-12-16T01:51:31.264Z,-2.20
2022-12-16T01:54:15.946Z,-2.20
2022-12-16T01:56:49.809Z,-2.20
2022-12-16T01:59:19.067Z,-2.20
2022-12-16T02:01:46.307Z,-2.10
2022-12-16T02:04:13.747Z,-2.10
2022-12-16T02:06:40.592Z,-2.20
2022-12-16T02:09:11.646Z,-2.20
2022-12-16T02:11:47.025Z,-2.20
2022-12-16T02:14:51.912Z,-2.10
2022-12-16T02:17:48.984Z,-2.20
2022-12-16T02:20:19.174Z,-2.10
2022-12-16T02:23:05.593Z,-2.20
2022-12-16T02:26:22.414Z,-2.20
2022-12-16T02:29:37.028Z,-2.20
2022-12-16T02:32:12.490Z,-2.20
2022-12-16T02:34:55.273Z,-2.10
2022-12-16T02:37:44.921Z,-2.20
2022-12-16T02:40:42.808Z,-2.20
2022-12-16T02:43:22.613Z,-2.20
2022-12-16T02:45:50.338Z,-2.20
2022-12-16T02:48:17.263Z,-2.30
2022-12-16T02:50:49.592Z,-2.30
2022-12-16T02:53:18.085Z,-2.30
2022-12-16T02:56:02.101Z,-2.30
2022-12-16T02:58:47.077Z,-2.40
2022-12-16T03:01:27.585Z,-2.40
2022-12-16T03:04:07.861Z,-2.30
2022-12-16T03:06:37.992Z,-2.30
2022-12-16T03:09:08.540Z,-2.30
2022-12-16T03:11:36.819Z,-2.40
2022-12-16T03:14:06.767Z,-2.40
2022-12-16T03:16:34.877Z,-2.30
2022-12-16T03:19:05.064Z,-2.40
2022-12-16T03:21:41.678Z,-2.40
2022-12-16T03:24:13.880Z,-2.50
2022-12-16T03:26:58.652Z,-2.40
2022-12-16T03:29:31.305Z,-2.40
2022-12-16T03:32:05.601Z,-2.30
2022-12-16T03:34:44.326Z,-2.30
2022-12-16T03:37:14.045Z,-2.40
2022-12-16T03:39:53.345Z,-2.50
2022-12-16T03:42:20.483Z,-2.50
2022-12-16T03:44:49.583Z,-2.50
2022-12-16T03:47:23.129Z,-2.50
2022-12-16T03:49:51.073Z,-2.50
2022-12-16T03:52:18.139Z,-2.50
2022-12-16T03:54:45.020Z,-2.50
2022-12-16T03:57:15.301Z,-2.40
2022-12-16T03:59:43.500Z,-2.50
2022-12-16T04:02:10.646Z,-2.60
2022-12-16T04:04:37.808Z,-2.60
2022-12-16T04:07:24.932Z,-2.70
2022-12-16T04:09:53.076Z,-2.60
2022-12-16T04:12:39.066Z,-2.60
2022-12-16T04:15:26.322Z,-2.50
2022-12-16T04:18:12.186Z,-2.50
2022-12-16T04:21:11.206Z,-2.50
2022-12-16T04:24:02.563Z,-2.50
2022-12-16T04:26:29.499Z,-2.70
2022-12-16T04:28:56.353Z,-2.60
2022-12-16T04:31:23.393Z,-2.60
2022-12-16T04:34:16.348Z,-2.60
2022-12-16T04:37:01.595Z,-2.60
2022-12-16T04:39:46.860Z,-2.50
2022-12-16T04:42:32.124Z,-2.60
2022-12-16T04:45:17.334Z,-2.50
2022-12-16T04:48:02.562Z,-2.60
2022-12-16T04:50:48.048Z,-2.50
2022-12-16T04:53:33.538Z,-2.60
2022-12-16T04:56:19.463Z,-2.60
2022-12-16T04:59:04.685Z,-2.50
2022-12-16T05:01:50.291Z,-2.50
2022-12-16T05:04:52.514Z,-2.50
2022-12-16T05:07:38.815Z,-2.50
2022-12-16T05:10:25.545Z,-2.50
2022-12-16T05:13:13.937Z,-2.50
2022-12-16T05:15:59.745Z,-2.60
2022-12-16T05:18:45.218Z,-2.60
2022-12-16T05:21:30.882Z,-2.60
2022-12-16T05:24:16.349Z,-2.50
2022-12-16T05:27:01.889Z,-2.50
2022-12-16T05:29:47.513Z,-2.50
2022-12-16T05:32:32.819Z,-2.50
2022-12-16T05:35:17.986Z,-2.50
2022-12-16T05:38:03.111Z,-2.50
2022-12-16T05:40:48.428Z,-2.60
2022-12-16T05:43:34.163Z,-2.50
2022-12-16T05:46:19.899Z,-2.50
2022-12-16T05:49:05.141Z,-2.50
2022-12-16T05:51:51.003Z,-1.50
2022-12-16T05:54:36.377Z,-2.50
2022-12-16T05:57:21.605Z,-2.40
2022-12-16T06:00:07.224Z,-2.50
2022-12-16T06:02:52.976Z,-2.40
2022-12-16T06:05:38.819Z,-2.40
2022-12-16T06:08:24.358Z,-2.30
2022-12-16T06:11:09.476Z,-2.30
2022-12-16T06:13:54.878Z,-2.40
2022-12-16T06:16:40.442Z,-2.40
2022-12-16T06:19:27.290Z,-2.30
2022-12-16T06:22:12.632Z,-2.30
2022-12-16T06:25:02.800Z,-2.30
2022-12-16T06:27:48.544Z,-2.30
2022-12-16T06:30:34.165Z,-2.30
2022-12-16T06:33:39.612Z,-2.40
2022-12-16T06:36:25.611Z,-2.30
2022-12-16T06:39:11.180Z,-2.20
2022-12-16T06:41:56.622Z,-2.20
2022-12-16T06:44:42.121Z,-2.20
2022-12-16T06:47:29.383Z,-2.20
2022-12-16T06:50:14.572Z,-2.20
2022-12-16T06:53:02.396Z,-2.10
2022-12-16T06:55:48.313Z,-2.00
2022-12-16T06:58:33.502Z,-2.00
2022-12-16T07:01:19.088Z,-2.10
2022-12-16T07:04:05.563Z,-2.10
2022-12-16T07:06:50.745Z,-2.10
2022-12-16T07:09:35.957Z,-2.00
2022-12-16T07:12:21.628Z,-2.00
2022-12-16T07:15:06.878Z,-2.00
2022-12-16T07:17:52.049Z,-2.10
2022-12-16T07:20:37.364Z,-2.00
2022-12-16T07:23:22.857Z,-2.00
2022-12-16T07:26:08.608Z,-1.90
2022-12-16T07:28:53.812Z,-2.00
2022-12-16T07:31:39.123Z,-2.00
2022-12-16T07:34:24.857Z,-1.90
2022-12-16T07:37:10.671Z,-1.90
2022-12-16T07:39:56.056Z,-1.90
2022-12-16T07:42:42.600Z,-1.80
2022-12-16T07:45:29.198Z,-1.90
2022-12-16T07:48:15.188Z,-1.90
2022-12-16T07:51:02.061Z,-1.80
2022-12-16T07:53:47.778Z,-1.70
2022-12-16T07:56:33.562Z,-1.80
2022-12-16T07:59:19.656Z,-1.70
2022-12-16T08:02:05.315Z,-1.70
2022-12-16T08:04:50.835Z,-1.60
2022-12-16T08:07:36.404Z,-1.60
2022-12-16T08:10:22.518Z,-1.60
2022-12-16T08:13:07.718Z,-1.50
2022-12-16T08:15:53.006Z,-1.60
2022-12-16T08:18:38.261Z,-1.50
2022-12-16T08:21:23.904Z,-1.50
2022-12-16T08:24:09.515Z,-1.50
2022-12-16T08:26:54.822Z,-1.50
2022-12-16T08:29:48.532Z,-1.40
2022-12-16T08:32:35.141Z,-1.40
2022-12-16T08:35:20.919Z,-1.40
2022-12-16T08:38:12.244Z,-1.40
2022-12-16T08:41:03.606Z,-1.40
2022-12-16T08:43:53.782Z,-1.40
2022-12-16T08:46:40.366Z,-1.30
2022-12-16T08:49:26.043Z,-1.30
2022-12-16T08:52:11.809Z,-1.20
2022-12-16T08:54:59.076Z,-1.30
2022-12-16T08:57:44.623Z,-2.10
2022-12-16T09:00:30.714Z,-1.30
2022-12-16T09:03:17.637Z,-1.30
2022-12-16T09:06:04.173Z,-1.20
2022-12-16T09:08:49.960Z,-1.20
2022-12-16T09:11:35.846Z,-1.30
2022-12-16T09:14:21.554Z,-1.30
2022-12-16T09:17:07.183Z,-1.20
2022-12-16T09:19:52.428Z,-1.10
2022-12-16T09:22:39.615Z,-1.10
2022-12-16T09:25:25.493Z,-1.10
2022-12-16T09:28:10.687Z,-1.00
2022-12-16T09:30:56.334Z,-1.00
2022-12-16T09:33:42.032Z,-1.00
2022-12-16T09:36:27.592Z,-1.00
2022-12-16T09:39:13.009Z,-1.00
2022-12-16T09:41:59.968Z,-1.00
2022-12-16T09:45:06.908Z,-1.10
2022-12-16T09:48:07.298Z,-1.10
2022-12-16T09:50:57.287Z,-1.20
2022-12-16T09:53:44.777Z,-1.10
2022-12-16T09:56:36.859Z,-1.00
2022-12-16T09:59:29.712Z,-1.10
2022-12-16T10:02:15.525Z,-1.20
2022-12-16T10:05:10.845Z,-1.20
2022-12-16T10:08:05.057Z,-1.10
2022-12-16T10:11:27.525Z,-1.00
2022-12-16T10:14:37.309Z,-1.00
2022-12-16T10:17:34.545Z,-1.00
2022-12-16T10:20:34.413Z,-1.00
2022-12-16T10:23:53.169Z,-1.00
2022-12-16T10:27:06.761Z,-1.10
2022-12-16T10:29:58.130Z,-1.10
2022-12-16T10:32:53.149Z,-1.10
2022-12-16T10:35:43.289Z,-1.00
2022-12-16T10:38:44.201Z,-1.10
2022-12-16T10:41:31.869Z,-1.10
2022-12-16T10:44:23.518Z,-1.10
2022-12-16T10:47:08.807Z,-1.00
2022-12-16T10:49:55.052Z,-1.00
2022-12-16T10:52:40.607Z,-1.10
2022-12-16T10:55:59.942Z,-1.10
2022-12-16T10:59:11.783Z,-1.20
2022-12-16T11:01:57.964Z,-1.10
2022-12-16T11:04:51.591Z,-1.10
2022-12-16T11:07:55.658Z,-1.10
2022-12-16T11:10:45.647Z,-1.10
2022-12-16T11:13:47.282Z,-1.10
2022-12-16T11:16:37.977Z,-1.10
2022-12-16T11:19:23.667Z,-1.20
2022-12-16T11:22:09.351Z,-1.30
2022-12-16T11:24:59.498Z,-1.20
2022-12-16T11:27:45.830Z,-1.10
2022-12-16T11:30:36.405Z,-1.10
2022-12-16T11:33:30.897Z,-1.20
2022-12-16T11:36:25.864Z,-1.10
2022-12-16T11:39:11.768Z,-0.90
2022-12-16T11:42:08.013Z,-0.90
2022-12-16T11:45:02.991Z,-1.00
2022-12-16T11:48:17.270Z,-1.10
2022-12-16T11:51:15.043Z,-1.00
2022-12-16T11:54:12.973Z,-1.20
2022-12-16T11:57:02.719Z,-1.10
2022-12-16T12:00:21.228Z,-1.00
2022-12-16T12:03:32.112Z,-1.00
2022-12-16T12:06:47.083Z,-1.00
2022-12-16T12:09:39.930Z,-1.00
2022-12-16T12:12:31.082Z,-0.90
2022-12-16T12:15:46.752Z,-0.90
2022-12-16T12:18:53.036Z,-1.70
2022-12-16T12:21:47.276Z,-0.90
2022-12-16T12:25:02.439Z,-0.90
2022-12-16T12:27:59.749Z,-0.80
2022-12-16T12:30:45.282Z,-0.80
2022-12-16T12:33:42.483Z,-0.80
2022-12-16T12:36:56.222Z,-0.80
2022-12-16T12:39:50.469Z,-0.80
2022-12-16T12:43:03.766Z,-0.80
2022-12-16T12:46:13.806Z,-0.90
2022-12-16T12:49:05.178Z,-0.80
2022-12-16T12:52:07.832Z,-0.80
2022-12-16T12:55:14.485Z,-0.80
2022-12-16T12:58:01.986Z,-0.80
2022-12-16T13:00:51.173Z,-0.80
2022-12-16T13:03:42.633Z,-0.70
2022-12-16T13:06:28.656Z,-0.80
2022-12-16T13:09:16.880Z,-0.70
2022-12-16T13:12:25.148Z,-0.70
2022-12-16T13:15:14.292Z,-0.70
2022-12-16T13:18:17.954Z,-0.60
2022-12-16T13:21:03.533Z,-0.70
2022-12-16T13:23:54.609Z,-0.70
2022-12-16T13:26:42.675Z,-0.60
2022-12-16T13:29:40.311Z,-0.70
2022-12-16T13:32:25.887Z,-0.70
2022-12-16T13:35:34.126Z,-0.60
2022-12-16T13:38:37.631Z,-0.60
2022-12-16T13:41:45.899Z,-0.60
2022-12-16T13:44:51.660Z,-0.70
2022-12-16T13:47:54.014Z,-0.70
2022-12-16T13:51:01.232Z,-0.70
2022-12-16T13:54:09.236Z,-0.70
2022-12-16T13:57:02.785Z,-0.80
2022-12-16T13:59:49.504Z,-0.80
2022-12-16T14:03:11.490Z,-0.70
2022-12-16T14:06:01.718Z,-0.80
2022-12-16T14:08:56.023Z,-0.60
2022-12-16T14:12:05.553Z,-0.60
2022-12-16T14:15:10.489Z,-0.70
2022-12-16T14:18:13.234Z,-0.70
2022-12-16T14:21:09.472Z,-0.80
2022-12-16T14:24:05.680Z,-0.90
2022-12-16T14:26:54.687Z,-0.90
2022-12-16T14:29:48.504Z,-1.00
2022-12-16T14:32:53.633Z,-0.80
2022-12-16T14:35:45.965Z,-0.90
2022-12-16T14:38:41.773Z,-0.80
2022-12-16T14:41:31.307Z,-0.80
2022-12-16T14:44:36.657Z,-0.90
2022-12-16T14:47:22.377Z,-0.20
2022-12-16T14:50:10.949Z,-0.80
2022-12-16T14:52:56.717Z,-0.90
2022-12-16T14:55:53.482Z,-0.80
2022-12-16T14:58:43.443Z,-0.70
2022-12-16T15:01:37.141Z,-0.70
2022-12-16T15:04:31.817Z,-0.70
2022-12-16T15:07:17.888Z,-0.70
2022-12-16T15:10:06.894Z,-0.70
2022-12-16T15:12:57.917Z,-0.70
2022-12-16T15:15:57.170Z,-0.70
2022-12-16T15:18:57.096Z,-0.60
2022-12-16T15:21:43.010Z,-0.60
2022-12-16T15:24:34.138Z,-0.60
2022-12-16T15:27:42.743Z,-0.50
2022-12-16T15:30:51.563Z,-0.60
2022-12-16T15:33:39.426Z,-0.60
2022-12-16T15:36:31.493Z,-0.60
2022-12-16T15:39:17.183Z,-0.60
2022-12-16T15:42:06.808Z,-0.70
2022-12-16T15:44:52.417Z,-0.60
2022-12-16T15:47:55.827Z,-0.50
2022-12-16T15:50:48.186Z,-0.60
2022-12-16T15:53:54.209Z,-0.50
2022-12-16T15:56:45.434Z,-0.50
2022-12-16T15:59:50.532Z,-0.60
2022-12-16T16:02:36.365Z,-0.60
2022-12-16T16:05:28.816Z,-0.50
2022-12-16T16:08:14.021Z,-0.50
2022-12-16T16:11:01.654Z,-0.50
2022-12-16T16:13:47.453Z,-0.60
2022-12-16T16:16:33.806Z,-0.60
2022-12-16T16:19:19.449Z,-0.60
2022-12-16T16:22:05.097Z,-0.60
2022-12-16T16:24:50.465Z,-0.70
2022-12-16T16:27:37.631Z,-0.70
2022-12-16T16:30:23.558Z,-0.70
2022-12-16T16:33:08.834Z,-0.60
2022-12-16T16:35:53.925Z,-0.70
2022-12-16T16:38:39.189Z,-0.60
2022-12-16T16:41:32.959Z,-0.60
2022-12-16T16:44:20.029Z,-0.60
2022-12-16T16:47:06.043Z,-0.60
2022-12-16T16:49:56.331Z,-0.60
2022-12-16T16:52:43.346Z,-0.70
2022-12-16T16:55:38.209Z,-0.60
2022-12-16T16:58:42.724Z,-0.60
2022-12-16T17:01:31.907Z,-0.60
2022-12-16T17:04:17.828Z,-0.60
2022-12-16T17:07:03.334Z,-0.60
2022-12-16T17:09:49.348Z,-0.60
2022-12-16T17:12:40.341Z,-0.70
2022-12-16T17:15:44.530Z,-0.70
2022-12-16T17:18:30.257Z,-0.70
2022-12-16T17:21:15.870Z,-0.60
2022-12-16T17:24:01.544Z,-0.70
2022-12-16T17:26:47.284Z,-0.80
2022-12-16T17:29:43.487Z,-0.90
2022-12-16T17:32:29.930Z,-0.70
2022-12-16T17:35:15.683Z,-0.80
2022-12-16T17:38:01.856Z,-0.80
2022-12-16T17:40:47.265Z,-0.70
2022-12-16T17:43:32.979Z,-0.70
2022-12-16T17:46:19.652Z,-0.70
2022-12-16T17:49:09.988Z,-0.80
2022-12-16T17:51:55.441Z,-0.70
2022-12-16T17:54:40.970Z,-0.90
2022-12-16T17:57:27.011Z,-0.90
2022-12-16T18:00:12.337Z,-1.00
2022-12-16T18:02:58.136Z,-0.80
2022-12-16T18:05:44.823Z,-0.90
2022-12-16T18:08:30.378Z,-1.10
2022-12-16T18:11:17.406Z,-1.00
2022-12-16T18:14:03.338Z,-1.60
2022-12-16T18:16:48.948Z,-1.10
2022-12-16T18:19:43.085Z,-1.10
2022-12-16T18:22:28.298Z,-1.10
2022-12-16T18:25:13.501Z,-1.20
2022-12-16T18:27:58.743Z,-1.20
2022-12-16T18:30:44.215Z,-1.20
2022-12-16T18:33:29.633Z,-1.20
2022-12-16T18:36:15.310Z,-1.30
2022-12-16T18:39:00.562Z,-1.20
2022-12-16T18:41:46.281Z,-1.20
2022-12-16T18:44:33.046Z,-1.20
2022-12-16T18:47:18.817Z,-1.20
2022-12-16T18:50:04.485Z,-1.40
2022-12-16T18:52:50.077Z,-1.30
2022-12-16T18:55:35.830Z,-1.30
2022-12-16T18:58:49.730Z,-1.40
2022-12-16T19:01:29.028Z,-1.40
2022-12-16T19:04:15.767Z,-1.40
2022-12-16T19:07:01.427Z,-1.50
2022-12-16T19:09:46.960Z,-1.50
2022-12-16T19:12:33.183Z,-1.60
2022-12-16T19:15:18.674Z,-1.60
2022-12-16T19:18:04.358Z,-1.40
2022-12-16T19:20:49.840Z,-1.30
2022-12-16T19:23:35.902Z,-1.50
2022-12-16T19:26:21.866Z,-1.50
2022-12-16T19:29:07.591Z,-1.60
2022-12-16T19:31:53.297Z,-1.60
2022-12-16T19:34:41.938Z,-1.60
2022-12-16T19:37:27.467Z,-1.60
2022-12-16T19:40:13.119Z,-1.60
2022-12-16T19:42:58.497Z,-1.60
2022-12-16T19:45:44.076Z,-1.60
2022-12-16T19:48:29.723Z,-1.70
2022-12-16T19:51:20.216Z,-1.60
2022-12-16T19:54:06.140Z,-1.60
2022-12-16T19:56:52.457Z,-1.80
2022-12-16T19:59:41.269Z,-1.80
2022-12-16T20:02:31.816Z,-1.50
2022-12-16T20:05:17.421Z,-1.60
2022-12-16T20:08:03.105Z,-1.60
2022-12-16T20:10:48.473Z,-1.50
2022-12-16T20:13:34.422Z,-1.50
2022-12-16T20:16:27.560Z,-1.70
2022-12-16T20:19:13.304Z,-1.70
2022-12-16T20:22:05.832Z,-1.80
2022-12-16T20:24:52.593Z,-1.80
2022-12-16T20:27:42.129Z,-1.80
2022-12-16T20:30:28.741Z,-1.70
2022-12-16T20:33:14.420Z,-1.70
2022-12-16T20:36:00.207Z,-1.80
2022-12-16T20:38:45.618Z,-1.80
2022-12-16T20:41:31.388Z,-1.80
2022-12-16T20:44:16.755Z,-1.90
2022-12-16T20:47:03.348Z,-2.00
2022-12-16T20:49:48.826Z,-2.00
2022-12-16T20:52:34.408Z,-1.90
2022-12-16T20:55:19.929Z,-2.00
2022-12-16T20:58:05.247Z,-1.90
2022-12-16T21:00:50.741Z,-1.90
2022-12-16T21:03:37.289Z,-1.90
2022-12-16T21:06:23.813Z,-1.80
2022-12-16T21:09:09.269Z,-1.90
2022-12-16T21:14:42.849Z,-1.80
2022-12-16T21:15:00.426Z,-1.90
2022-12-16T21:17:46.057Z,-1.90
2022-12-16T21:20:31.629Z,-2.00
2022-12-16T21:23:22.847Z,-1.90
2022-12-16T21:26:08.642Z,-1.90
2022-12-16T21:32:00.492Z,-1.90
2022-12-16T21:34:46.372Z,-2.00
2022-12-16T21:37:32.467Z,-2.00
2022-12-16T21:40:17.791Z,-2.00
2022-12-16T21:43:03.145Z,-1.90
2022-12-16T21:45:48.649Z,-1.80
2022-12-16T21:48:34.136Z,-1.80
2022-12-16T21:51:19.412Z,-1.90
2022-12-16T21:57:10.300Z,-2.00
2022-12-16T22:00:06.658Z,-2.00
2022-12-16T22:02:53.922Z,-1.90
2022-12-16T22:05:39.517Z,-1.90
2022-12-16T22:08:26.644Z,-1.70
2022-12-16T22:11:12.546Z,-1.80
2022-12-16T22:13:58.729Z,-1.90
2022-12-16T22:16:44.334Z,-2.00
2022-12-16T22:19:30.114Z,-3.50
2022-12-16T22:22:15.715Z,-2.00
2022-12-16T22:25:01.143Z,-2.10
2022-12-16T22:27:46.314Z,-2.10
2022-12-16T22:30:31.964Z,-2.10
2022-12-16T22:33:17.706Z,-2.10
2022-12-16T22:36:03.075Z,-2.20
2022-12-16T22:36:22.040Z,-1.90
2022-12-16T22:38:56.369Z,-2.10
2022-12-16T22:41:41.757Z,-2.10
2022-12-16T22:44:27.137Z,-2.10
2022-12-16T22:47:12.607Z,-2.20
2022-12-16T22:50:11.928Z,-2.10
2022-12-16T22:52:57.528Z,-2.00
2022-12-16T22:55:42.748Z,-2.20
2022-12-16T22:58:29.432Z,-2.20
2022-12-16T23:01:15.154Z,-2.20
2022-12-16T23:04:01.031Z,-2.10
2022-12-16T23:06:48.365Z,-2.10
2022-12-16T23:09:34.379Z,-2.10
2022-12-16T23:12:20.196Z,-2.20
2022-12-16T23:15:05.715Z,-2.30
2022-12-16T23:17:51.059Z,-2.10
2022-12-16T23:20:37.206Z,-2.10
2022-12-16T23:23:22.556Z,-2.20
2022-12-16T23:26:19.258Z,-2.20
2022-12-16T23:29:11.534Z,-2.20
2022-12-16T23:31:57.859Z,-2.30
2022-12-16T23:34:46.277Z,-2.40
2022-12-16T23:37:33.347Z,-2.30
2022-12-16T23:40:18.820Z,-2.40
2022-12-16T23:43:06.020Z,-2.30
2022-12-16T23:45:51.564Z,-2.20
2022-12-16T23:48:37.738Z,-2.20
2022-12-16T23:51:23.482Z,-2.30
2022-12-16T23:54:08.975Z,-2.00
2022-12-16T23:56:55.120Z,-2.10
2022-12-16T23:59:41.765Z,-2.10
